Time;durP1;ratioP1;P1;durP2;ratioP2;P2;SDS_P1;SDS_P2;PMS_P1;PMS_P2;Temp;Humidity;BMP_temperature;BMP_pressure;BME280_temperature;BME280_humidity;BME280_pressure;Samples;Min_cycle;Max_cycle;Signal;HPM_P1;HPM_P2
2023/05/23 00:00:07;;;;;;;27.00;16.83;;;;;;;19.47;81.70;99268.06;337971;28;4500;-78
2023/05/23 00:00:19;;;;;;;25.30;16.05;;;;;;;19.47;82.08;99273.31;334216;28;9842;-78
2023/05/23 00:00:32;;;;;;;26.58;16.27;;;;;;;19.45;82.18;99267.31;336196;28;4615;-78
2023/05/23 00:00:44;;;;;;;26.30;16.63;;;;;;;19.47;82.02;99273.31;334583;28;5280;-78
2023/05/23 00:00:57;;;;;;;27.23;16.75;;;;;;;19.45;82.04;99269.97;336321;28;18070;-78
2023/05/23 00:01:13;;;;;;;28.10;16.80;;;;;;;19.45;82.23;99275.25;337118;28;4711;-78
2023/05/23 00:01:26;;;;;;;26.17;16.77;;;;;;;19.43;82.06;99269.25;334767;28;16911;-78
2023/05/23 00:01:38;;;;;;;24.20;15.77;;;;;;;19.44;82.02;99273.56;336844;28;5320;-78
2023/05/23 00:01:53;;;;;;;25.35;15.95;;;;;;;19.42;82.12;99272.84;333845;28;18196;-78
2023/05/23 00:02:07;;;;;;;25.10;17.08;;;;;;;19.36;82.54;99273.31;333027;28;18060;-78
2023/05/23 00:02:19;;;;;;;26.90;17.30;;;;;;;19.37;82.61;99277.63;335056;28;4710;-78
2023/05/23 00:02:31;;;;;;;27.20;16.73;;;;;;;19.37;82.55;99277.63;338509;28;4520;-78
2023/05/23 00:02:43;;;;;;;25.75;16.52;;;;;;;19.35;82.65;99269.81;339267;28;5253;-78
2023/05/23 00:02:56;;;;;;;26.67;17.30;;;;;;;19.37;82.71;99267.06;335189;28;17977;-78
2023/05/23 00:03:11;;;;;;;27.80;18.20;;;;;;;19.39;82.55;99269.59;338308;28;5193;-78
2023/05/23 00:03:26;;;;;;;27.38;17.58;;;;;;;19.40;82.51;99273.91;334477;28;17612;-78
2023/05/23 00:03:38;;;;;;;28.48;16.75;;;;;;;19.41;82.32;99271.16;334051;28;17815;-78
2023/05/23 00:03:52;;;;;;;28.65;17.13;;;;;;;19.41;82.30;99265.88;333777;28;17812;-78
2023/05/23 00:04:05;;;;;;;27.80;17.45;;;;;;;19.41;82.65;99268.50;333735;28;18642;-78
2023/05/23 00:04:17;;;;;;;25.67;17.20;;;;;;;19.46;82.24;99266.38;337242;28;5110;-78
2023/05/23 00:04:29;;;;;;;25.40;17.25;;;;;;;19.44;82.16;99267.47;335914;28;16665;-78
2023/05/23 00:04:42;;;;;;;27.40;17.45;;;;;;;19.43;82.00;99266.59;338394;28;5509;-78
2023/05/23 00:04:57;;;;;;;28.35;17.50;;;;;;;19.45;82.15;99271.75;338409;28;5043;-78
2023/05/23 00:05:09;;;;;;;32.50;17.63;;;;;;;19.42;82.14;99267.56;334716;28;17057;-78
2023/05/23 00:05:21;;;;;;;31.40;17.60;;;;;;;19.41;82.30;99263.25;335732;28;18885;-78
2023/05/23 00:05:33;;;;;;;28.42;17.42;;;;;;;19.38;82.37;99266.13;336788;28;4610;-78
2023/05/23 00:05:46;;;;;;;26.98;17.23;;;;;;;19.36;82.39;99278.59;334175;28;18935;-78
2023/05/23 00:06:00;;;;;;;27.23;17.27;;;;;;;19.34;82.71;99267.31;337585;28;4517;-78
2023/05/23 00:06:13;;;;;;;28.40;16.95;;;;;;;19.34;82.51;99269.94;336003;28;17644;-78
2023/05/23 00:06:25;;;;;;;29.10;16.95;;;;;;;19.32;82.58;99263.97;334095;28;18090;-78
2023/05/23 00:06:37;;;;;;;29.48;17.30;;;;;;;19.32;82.59;99266.59;338060;28;4657;-78
2023/05/23 00:06:50;;;;;;;28.92;17.17;;;;;;;19.31;82.63;99262.25;334899;28;16449;-78
2023/05/23 00:07:02;;;;;;;27.15;17.42;;;;;;;19.32;82.69;99263.97;338322;28;4532;-78
2023/05/23 00:07:15;;;;;;;26.70;17.65;;;;;;;19.31;82.74;99267.53;335134;28;15874;-78
2023/05/23 00:07:27;;;;;;;27.58;17.30;;;;;;;19.34;82.66;99267.31;340085;28;4623;-78
2023/05/23 00:07:39;;;;;;;28.75;17.83;;;;;;;19.32;82.81;99269.22;339646;28;5274;-78
2023/05/23 00:07:51;;;;;;;28.75;18.08;;;;;;;19.32;82.69;99270.06;336719;28;18159;-78
2023/05/23 00:08:03;;;;;;;29.17;18.42;;;;;;;19.31;82.83;99262.25;339671;28;5277;-78
2023/05/23 00:08:16;;;;;;;29.63;18.50;;;;;;;19.30;82.96;99266.69;335563;28;4959;-78
2023/05/23 00:08:28;;;;;;;30.48;18.20;;;;;;;19.31;82.94;99267.53;336804;28;9254;-78
2023/05/23 00:08:40;;;;;;;30.70;18.08;;;;;;;19.30;82.83;99271.13;335707;28;18331;-78
2023/05/23 00:08:52;;;;;;;28.10;17.80;;;;;;;19.31;82.91;99270.16;338101;28;4674;-78
2023/05/23 00:09:04;;;;;;;28.15;17.90;;;;;;;19.33;82.71;99270.88;337895;28;4582;-78
2023/05/23 00:09:16;;;;;;;26.92;17.60;;;;;;;19.33;82.93;99268.25;335549;28;17899;-78
2023/05/23 00:09:28;;;;;;;28.15;17.58;;;;;;;19.33;82.93;99271.72;338476;28;4653;-78
2023/05/23 00:09:40;;;;;;;29.00;17.88;;;;;;;19.28;82.94;99268.59;335538;28;18090;-78
2023/05/23 00:09:52;;;;;;;30.02;18.38;;;;;;;19.28;83.06;99267.78;338110;28;4704;-78
2023/05/23 00:10:05;;;;;;;29.52;18.25;;;;;;;19.28;83.09;99270.41;338595;28;4624;-78
2023/05/23 00:10:17;;;;;;;28.63;17.92;;;;;;;19.28;82.94;99263.34;337288;28;17425;-78
2023/05/23 00:10:29;;;;;;;27.10;18.10;;;;;;;19.28;83.00;99273.03;339355;28;4488;-78
2023/05/23 00:10:41;;;;;;;27.10;18.10;;;;;;;19.27;83.38;99266.09;336671;28;18218;-78
2023/05/23 00:10:53;;;;;;;28.85;18.55;;;;;;;19.28;83.02;99267.78;338158;28;4575;-78
2023/05/23 00:11:05;;;;;;;31.42;19.08;;;;;;;19.29;83.25;99266.81;335507;28;16567;-78
2023/05/23 00:11:19;;;;;;;31.55;18.70;;;;;;;19.29;83.07;99277.34;338153;28;4550;-78
2023/05/23 00:11:31;;;;;;;30.67;18.15;;;;;;;19.29;83.08;99270.28;335850;28;18107;-78
2023/05/23 00:11:46;;;;;;;28.80;17.98;;;;;;;19.29;83.14;99269.44;339524;28;5129;-78
2023/05/23 00:11:58;;;;;;;28.80;18.40;;;;;;;19.30;83.25;99276.41;335411;28;17639;-78
2023/05/23 00:12:13;;;;;;;28.02;17.83;;;;;;;19.32;83.09;99270.06;335228;28;17767;-78
2023/05/23 00:12:26;;;;;;;25.85;17.35;;;;;;;19.32;82.93;99275.31;335572;28;17966;-78
2023/05/23 00:12:38;;;;;;;26.25;18.02;;;;;;;19.30;83.02;99276.41;337857;28;4498;-78
2023/05/23 00:12:51;;;;;;;26.65;18.73;;;;;;;19.24;83.38;99271.59;333681;28;18178;-78
2023/05/23 00:13:04;;;;;;;29.27;19.23;;;;;;;19.21;83.41;99280.53;339133;28;5283;-78
2023/05/23 00:13:16;;;;;;;31.47;19.30;;;;;;;19.22;83.32;99273.50;336990;28;16637;-78
2023/05/23 00:13:28;;;;;;;32.67;19.58;;;;;;;19.22;83.45;99268.25;338689;28;5320;-78
2023/05/23 00:13:41;;;;;;;31.98;19.20;;;;;;;19.23;83.34;99270.72;335199;28;5770;-78
2023/05/23 00:13:53;;;;;;;29.25;18.15;;;;;;;19.23;83.28;99280.44;338515;28;5087;-78
2023/05/23 00:14:07;;;;;;;30.75;17.80;;;;;;;19.25;83.30;99274.09;334727;28;15596;-78
2023/05/23 00:14:19;;;;;;;32.15;18.15;;;;;;;19.25;83.30;99270.63;338573;28;5466;-78
2023/05/23 00:14:32;;;;;;;32.03;18.52;;;;;;;19.27;83.20;99268.72;336758;28;18337;-78
2023/05/23 00:14:44;;;;;;;30.95;18.90;;;;;;;19.28;83.34;99273.03;335598;28;8032;-78
2023/05/23 00:14:56;;;;;;;30.85;19.85;;;;;;;19.27;83.28;99266.09;338309;28;5125;-78
2023/05/23 00:15:09;;;;;;;32.28;21.25;;;;;;;19.28;83.51;99273.88;337681;28;5264;-78
2023/05/23 00:15:21;;;;;;;31.42;20.83;;;;;;;19.27;83.27;99274.00;336207;28;17434;-78
2023/05/23 00:15:33;;;;;;;29.58;19.65;;;;;;;19.26;83.04;99273.16;339982;28;4504;-78
2023/05/23 00:15:47;;;;;;;29.80;19.42;;;;;;;19.27;83.43;99279.25;337147;28;17959;-78
2023/05/23 00:15:59;;;;;;;30.17;18.83;;;;;;;19.27;83.24;99269.53;339486;28;5320;-78
2023/05/23 00:16:11;;;;;;;29.80;18.30;;;;;;;19.26;83.12;99267.06;336532;28;18028;-78
2023/05/23 00:16:23;;;;;;;28.10;18.15;;;;;;;19.26;83.28;99267.06;337847;28;5468;-78
2023/05/23 00:16:40;;;;;;;29.60;18.70;;;;;;;19.28;83.02;99273.88;335180;28;18182;-78
2023/05/23 00:16:52;;;;;;;34.80;19.35;;;;;;;19.26;83.10;99274.97;335296;28;17797;-78
2023/05/23 00:17:04;;;;;;;35.28;19.48;;;;;;;19.27;83.21;99276.63;338014;28;4836;-78
2023/05/23 00:17:16;;;;;;;32.28;19.55;;;;;;;19.27;82.96;99274.00;333328;28;17939;-78
2023/05/23 00:17:29;;;;;;;29.95;19.10;;;;;;;19.26;83.09;99269.69;336583;28;4730;-78
2023/05/23 00:17:41;;;;;;;31.67;18.98;;;;;;;19.24;83.40;99276.88;332697;28;17833;-78
2023/05/23 00:17:53;;;;;;;32.47;19.02;;;;;;;19.25;83.20;99275.91;337331;28;5359;-78
2023/05/23 00:18:07;;;;;;;33.88;19.70;;;;;;;19.24;83.13;99275.06;335488;28;17738;-78
2023/05/23 00:18:19;;;;;;;34.00;19.60;;;;;;;19.24;83.18;99276.88;335649;28;5425;-78
2023/05/23 00:18:31;;;;;;;32.92;19.42;;;;;;;19.24;83.03;99274.22;338513;28;5198;-78
2023/05/23 00:18:44;;;;;;;33.10;19.30;;;;;;;19.24;82.99;99271.59;336085;28;4560;-78
2023/05/23 00:18:57;;;;;;;32.67;19.35;;;;;;;19.24;83.16;99272.44;333742;28;18080;-78
2023/05/23 00:19:10;;;;;;;32.55;19.88;;;;;;;19.28;83.07;99275.69;334143;28;9616;-78
2023/05/23 00:19:22;;;;;;;32.03;20.20;;;;;;;19.27;82.87;99272.19;337397;28;4515;-78
2023/05/23 00:19:35;;;;;;;31.92;19.58;;;;;;;19.26;83.05;99274.97;334016;28;8797;-78
2023/05/23 00:19:47;;;;;;;34.80;19.77;;;;;;;19.24;83.12;99282.97;338189;28;4800;-78
2023/05/23 00:20:00;;;;;;;35.20;20.05;;;;;;;19.23;82.98;99275.16;336523;28;5245;-78
2023/05/23 00:20:12;;;;;;;31.33;19.67;;;;;;;19.24;83.25;99276.88;339265;28;4857;-78
2023/05/23 00:20:24;;;;;;;30.00;19.65;;;;;;;19.23;83.26;99280.44;337795;28;5671;-78
2023/05/23 00:20:41;;;;;;;29.20;19.42;;;;;;;19.20;83.34;99275.41;335402;28;18424;-78
2023/05/23 00:20:53;;;;;;;30.83;20.02;;;;;;;19.20;83.37;99278.06;336023;28;17240;-78
2023/05/23 00:21:05;;;;;;;33.63;20.88;;;;;;;19.11;83.62;99272.47;336567;28;16478;-78
2023/05/23 00:21:17;;;;;;;33.58;21.10;;;;;;;19.08;83.95;99278.00;337851;28;4668;-78
2023/05/23 00:21:29;;;;;;;33.80;20.38;;;;;;;19.10;83.99;99280.53;339919;28;4582;-78
2023/05/23 00:21:42;;;;;;;33.13;20.00;;;;;;;19.10;83.73;99276.09;337162;28;18119;-78
2023/05/23 00:21:57;;;;;;;31.48;19.83;;;;;;;19.10;83.82;99281.34;339254;28;7472;-78
2023/05/23 00:22:11;;;;;;;32.03;19.77;;;;;;;19.09;83.92;99274.38;336345;28;18976;-78
2023/05/23 00:22:23;;;;;;;32.83;20.03;;;;;;;19.08;84.01;99278.00;336265;28;18074;-78
2023/05/23 00:22:38;;;;;;;32.17;20.38;;;;;;;19.11;83.92;99276.91;334279;28;16395;-78
2023/05/23 00:22:51;;;;;;;31.95;20.70;;;;;;;19.14;83.58;99282.81;334266;28;16821;-78
2023/05/23 00:23:03;;;;;;;32.88;20.52;;;;;;;19.12;83.66;99276.81;337043;28;5594;-78
2023/05/23 00:23:19;;;;;;;35.13;20.63;;;;;;;19.11;83.81;99283.03;334217;28;9633;-78
2023/05/23 00:23:32;;;;;;;37.00;21.23;;;;;;;19.10;84.01;99270.81;332830;28;19103;-78
2023/05/23 00:23:44;;;;;;;35.95;21.48;;;;;;;19.11;83.84;99277.75;334112;28;4542;-78
2023/05/23 00:23:57;;;;;;;35.90;21.13;;;;;;;19.12;83.83;99284.72;334300;28;18164;-78
2023/05/23 00:24:09;;;;;;;32.22;20.15;;;;;;;19.12;83.89;99279.44;336034;28;5189;-78
2023/05/23 00:24:21;;;;;;;32.20;20.02;;;;;;;19.11;83.96;99277.75;334574;28;17991;-78
2023/05/23 00:24:33;;;;;;;33.47;19.75;;;;;;;19.13;83.93;99275.84;338236;28;4495;-78
2023/05/23 00:24:45;;;;;;;33.25;19.67;;;;;;;19.15;83.79;99273.94;335264;28;18328;-78
2023/05/23 00:25:00;;;;;;;30.75;19.15;;;;;;;19.15;83.71;99279.19;338103;28;5328;-78
2023/05/23 00:25:12;;;;;;;30.95;19.30;;;;;;;19.10;83.76;99281.34;335542;28;18049;-78
2023/05/23 00:25:32;;;;;;;33.58;20.15;;;;;;;19.08;84.14;99272.72;334761;28;5321;-78
2023/05/23 00:25:51;;;;;;;32.92;20.52;;;;;;;19.08;84.14;99282.44;335223;28;17519;-78
2023/05/23 00:26:03;;;;;;;31.83;19.75;;;;;;;19.06;84.19;99285.16;337054;28;18022;-78
2023/05/23 00:26:15;;;;;;;33.03;19.38;;;;;;;19.06;84.20;99276.44;335529;28;19058;-78
2023/05/23 00:26:28;;;;;;;35.05;19.75;;;;;;;19.05;84.26;99278.19;337214;28;5741;-78
2023/05/23 00:26:40;;;;;;;36.63;20.33;;;;;;;19.04;84.28;99278.34;333296;28;17962;-78
2023/05/23 00:26:52;;;;;;;35.78;20.73;;;;;;;19.01;84.29;99278.56;336559;28;4636;-78
2023/05/23 00:27:04;;;;;;;34.42;20.80;;;;;;;18.99;84.52;99273.38;334985;28;4744;-78
2023/05/23 00:27:16;;;;;;;33.10;20.42;;;;;;;19.03;84.44;99274.00;336301;28;4599;-78
2023/05/23 00:27:28;;;;;;;32.75;20.05;;;;;;;19.05;84.37;99272.94;337814;28;4549;-78
2023/05/23 00:27:40;;;;;;;32.88;20.35;;;;;;;19.04;84.41;99279.19;336782;28;18043;-78
2023/05/23 00:27:52;;;;;;;32.78;20.27;;;;;;;19.04;84.51;99279.19;339017;28;4499;-78
2023/05/23 00:28:05;;;;;;;31.67;19.63;;;;;;;19.06;84.33;99279.06;337965;28;7753;-78
2023/05/23 00:28:17;;;;;;;30.60;19.55;;;;;;;19.05;84.21;99283.47;335398;28;17248;-78
2023/05/23 00:28:29;;;;;;;31.00;19.88;;;;;;;19.03;84.46;99280.09;336721;28;5122;-78
2023/05/23 00:28:41;;;;;;;32.17;20.45;;;;;;;19.04;84.43;99276.53;336247;28;17624;-78
2023/05/23 00:28:55;;;;;;;31.63;20.40;;;;;;;19.04;84.36;99273.91;338319;28;5167;-78
2023/05/23 00:29:07;;;;;;;30.52;19.75;;;;;;;19.05;84.30;99277.38;334938;28;18070;-78
2023/05/23 00:29:22;;;;;;;29.90;19.02;;;;;;;19.05;84.15;99277.38;338479;28;5076;-78
2023/05/23 00:29:35;;;;;;;32.13;18.77;;;;;;;19.06;84.29;99279.91;334424;28;17883;-78
2023/05/23 00:29:47;;;;;;;34.13;19.08;;;;;;;19.07;84.24;99275.47;336883;28;5057;-78
2023/05/23 00:29:59;;;;;;;34.55;19.33;;;;;;;19.08;84.25;99275.34;337205;28;5227;-78
2023/05/23 00:30:11;;;;;;;34.03;19.83;;;;;;;19.08;84.20;99272.72;334734;28;18048;-77
2023/05/23 00:30:23;;;;;;;34.90;20.40;;;;;;;19.09;84.15;99276.19;338153;28;5654;-78
2023/05/23 00:30:35;;;;;;;34.60;20.38;;;;;;;19.08;83.97;99278.00;336921;28;8639;-78
2023/05/23 00:30:50;;;;;;;31.98;19.98;;;;;;;19.08;84.25;99278.00;339510;28;4493;-78
2023/05/23 00:31:02;;;;;;;34.58;20.55;;;;;;;19.10;84.13;99273.44;335597;28;17842;-78
2023/05/23 00:31:14;;;;;;;35.10;20.63;;;;;;;19.07;84.22;99276.28;338326;28;6043;-78
2023/05/23 00:31:27;;;;;;;37.15;20.65;;;;;;;19.05;84.39;99278.19;337545;28;17748;-78
2023/05/23 00:31:39;;;;;;;36.50;20.95;;;;;;;19.05;84.27;99280.84;339562;28;4520;-78
2023/05/23 00:31:53;;;;;;;36.10;21.10;;;;;;;19.04;84.34;99275.72;336098;28;18876;-78
2023/05/23 00:32:05;;;;;;;35.40;21.10;;;;;;;19.04;84.29;99276.53;336688;28;18117;-78
2023/05/23 00:32:17;;;;;;;36.20;21.45;;;;;;;19.06;84.23;99284.34;339644;28;4534;-78
2023/05/23 00:32:29;;;;;;;35.60;21.40;;;;;;;19.07;84.19;99275.47;339147;28;7541;-78
2023/05/23 00:32:42;;;;;;;35.10;20.48;;;;;;;19.07;84.30;99281.56;336613;28;17866;-78
2023/05/23 00:32:54;;;;;;;36.03;21.08;;;;;;;19.07;84.30;99281.56;338711;28;7483;-78
2023/05/23 00:33:09;;;;;;;38.50;21.17;;;;;;;19.07;84.13;99281.56;334743;28;17798;-78
2023/05/23 00:33:21;;;;;;;40.03;20.75;;;;;;;19.07;84.23;99276.28;333230;28;18041;-78
2023/05/23 00:33:33;;;;;;;37.40;21.02;;;;;;;19.07;84.22;99276.28;336364;28;5486;-78
2023/05/23 00:33:45;;;;;;;37.47;22.35;;;;;;;19.07;84.30;99276.28;332898;28;18020;-78
2023/05/23 00:33:57;;;;;;;37.20;22.15;;;;;;;19.06;84.31;99279.91;335687;28;5190;-78
2023/05/23 00:34:09;;;;;;;37.20;22.05;;;;;;;19.03;84.49;99274.84;335564;28;4570;-78
2023/05/23 00:34:21;;;;;;;36.20;21.17;;;;;;;19.04;84.56;99284.44;332467;28;17920;-78
2023/05/23 00:34:33;;;;;;;36.03;21.52;;;;;;;19.05;84.34;99278.19;334883;28;4622;-78
2023/05/23 00:34:45;;;;;;;34.85;21.55;;;;;;;19.02;84.60;99283.72;334374;28;18275;-78
2023/05/23 00:34:57;;;;;;;37.17;22.00;;;;;;;19.00;84.47;99280.34;336278;28;5371;-78
2023/05/23 00:35:09;;;;;;;38.05;22.35;;;;;;;18.99;84.66;99283.94;337385;28;5113;-78
2023/05/23 00:35:22;;;;;;;39.22;22.73;;;;;;;19.00;84.68;99279.53;335316;28;18011;-78
2023/05/23 00:35:34;;;;;;;39.42;22.60;;;;;;;18.94;84.46;99280.81;339823;28;4689;-78
2023/05/23 00:35:47;;;;;;;40.80;22.60;;;;;;;18.84;85.25;99274.53;335745;28;17820;-78
2023/05/23 00:35:59;;;;;;;41.50;22.60;;;;;;;18.85;85.19;99281.47;338362;28;5442;-78
2023/05/23 00:36:12;;;;;;;43.33;23.02;;;;;;;18.84;85.65;99282.44;335719;28;18350;-78
2023/05/23 00:36:24;;;;;;;40.88;23.25;;;;;;;18.87;85.40;99283.03;338234;28;4749;-78
2023/05/23 00:36:36;;;;;;;38.38;22.88;;;;;;;18.89;85.40;99282.91;335429;28;18211;-78
2023/05/23 00:36:49;;;;;;;37.85;22.48;;;;;;;18.88;85.40;99281.25;338886;28;4553;-78
2023/05/23 00:37:01;;;;;;;40.53;22.95;;;;;;;18.85;85.60;99284.09;336265;28;17844;-78
2023/05/23 00:37:13;;;;;;;41.70;22.90;;;;;;;18.82;85.73;99279.06;338691;28;4665;-78
2023/05/23 00:37:27;;;;;;;41.42;22.80;;;;;;;18.82;85.76;99277.28;336582;28;17771;-78
2023/05/23 00:37:39;;;;;;;39.35;22.35;;;;;;;18.86;85.66;99277.91;339559;28;4527;-78
2023/05/23 00:37:53;;;;;;;39.10;22.83;;;;;;;18.90;85.48;99279.34;336294;28;18209;-78
2023/05/23 00:38:06;;;;;;;37.00;23.00;;;;;;;18.92;85.46;99278.28;337458;28;8826;-78
2023/05/23 00:38:18;;;;;;;37.30;23.60;;;;;;;18.91;85.67;99275.75;337411;28;17187;-78
2023/05/23 00:38:30;;;;;;;41.70;24.08;;;;;;;18.92;85.37;99283.53;336986;28;16210;-78
2023/05/23 00:38:44;;;;;;;42.03;23.60;;;;;;;18.95;85.39;99277.19;337901;28;5162;-78
2023/05/23 00:38:56;;;;;;;40.72;22.80;;;;;;;18.86;85.70;99284.00;335236;28;17751;-78
2023/05/23 00:39:16;;;;;;;40.88;23.13;;;;;;;18.88;85.80;99278.63;338634;28;4486;-78
2023/05/23 00:39:28;;;;;;;40.30;23.63;;;;;;;18.87;85.72;99280.38;334841;28;16880;-78
2023/05/23 00:39:40;;;;;;;38.58;22.67;;;;;;;18.92;85.59;99278.28;335846;28;5395;-78
2023/05/23 00:39:52;;;;;;;38.25;22.65;;;;;;;18.94;85.76;99281.63;338169;28;5414;-78
2023/05/23 00:40:04;;;;;;;40.15;23.50;;;;;;;18.96;85.34;99278.91;338420;28;4747;-78
2023/05/23 00:40:20;;;;;;;41.05;24.55;;;;;;;18.92;85.27;99278.28;334987;28;17974;-78
2023/05/23 00:40:33;;;;;;;41.17;24.48;;;;;;;18.95;85.27;99282.47;335297;28;18032;-78
2023/05/23 00:40:45;;;;;;;42.33;23.75;;;;;;;18.96;85.08;99281.53;335829;28;16606;-78
2023/05/23 00:40:57;;;;;;;41.42;23.65;;;;;;;18.98;85.24;99286.69;338540;28;5049;-78
2023/05/23 00:41:09;;;;;;;41.50;23.35;;;;;;;19.02;85.22;99280.25;338297;28;4490;-78
2023/05/23 00:41:21;;;;;;;40.83;23.15;;;;;;;19.03;84.88;99285.38;334738;28;18894;-78
2023/05/23 00:41:35;;;;;;;38.35;22.73;;;;;;;18.98;84.99;99287.53;336740;28;4575;-78
2023/05/23 00:41:49;;;;;;;39.10;22.88;;;;;;;18.91;85.25;99281.88;333758;28;17959;-78
2023/05/23 00:42:05;;;;;;;40.22;23.67;;;;;;;18.95;85.51;99278.06;334741;28;17536;-78
2023/05/23 00:42:17;;;;;;;39.72;23.88;;;;;;;18.97;85.10;99285.84;335358;28;18064;-78
2023/05/23 00:42:31;;;;;;;39.67;23.80;;;;;;;18.98;85.07;99279.63;336855;28;4740;-78
2023/05/23 00:42:44;;;;;;;38.60;23.77;;;;;;;18.96;85.00;99281.53;333619;28;17937;-78
2023/05/23 00:42:56;;;;;;;37.97;23.58;;;;;;;18.94;85.15;99279.00;334069;28;18152;-78
2023/05/23 00:43:08;;;;;;;38.08;23.20;;;;;;;18.98;85.09;99282.25;337589;28;5515;-78
2023/05/23 00:43:21;;;;;;;37.75;22.83;;;;;;;18.99;84.96;99283.94;337076;28;9963;-78
2023/05/23 00:43:33;;;;;;;38.53;23.30;;;;;;;18.95;85.12;99279.84;336781;28;17169;-78
2023/05/23 00:43:45;;;;;;;39.47;23.55;;;;;;;18.91;85.19;99275.75;335509;28;8974;-78
2023/05/23 00:43:58;;;;;;;40.55;23.90;;;;;;;18.91;85.21;99278.38;338292;28;5393;-78
2023/05/23 00:44:10;;;;;;;38.90;23.07;;;;;;;18.92;85.17;99280.91;335386;28;16036;-78
2023/05/23 00:44:22;;;;;;;37.83;22.77;;;;;;;18.92;85.20;99287.97;339397;28;4500;-78
2023/05/23 00:44:34;;;;;;;40.00;22.98;;;;;;;18.91;85.43;99286.28;338488;28;6666;-78
2023/05/23 00:44:47;;;;;;;38.60;22.85;;;;;;;18.86;85.60;99280.53;336760;28;18012;-78
2023/05/23 00:45:02;;;;;;;39.42;23.67;;;;;;;18.87;85.67;99282.19;338514;28;4621;-78
2023/05/23 00:45:14;;;;;;;43.75;24.20;;;;;;;18.83;85.39;99278.09;335542;28;17921;-78
2023/05/23 00:45:26;;;;;;;46.30;25.23;;;;;;;18.84;85.67;99283.25;335660;28;18241;-78
2023/05/23 00:45:38;;;;;;;43.85;24.70;;;;;;;18.88;85.65;99286.53;338103;28;5322;-78
2023/05/23 00:45:51;;;;;;;41.30;23.77;;;;;;;18.87;85.51;99283.03;335228;28;18223;-78
2023/05/23 00:46:03;;;;;;;41.60;23.65;;;;;;;18.88;85.58;99281.25;338521;28;4985;-78
2023/05/23 00:46:16;;;;;;;43.60;24.27;;;;;;;18.90;85.64;99287.25;335493;28;17737;-78
2023/05/23 00:46:30;;;;;;;44.58;23.77;;;;;;;18.92;85.47;99282.72;338543;28;5251;-78
2023/05/23 00:46:46;;;;;;;42.05;23.40;;;;;;;18.95;85.33;99282.47;333394;28;16350;-78
2023/05/23 00:46:59;;;;;;;39.63;23.35;;;;;;;18.96;85.20;99284.16;334146;28;18044;-78
2023/05/23 00:47:12;;;;;;;37.17;22.15;;;;;;;19.00;85.11;99285.63;335680;28;5286;-78
2023/05/23 00:47:24;;;;;;;36.15;22.50;;;;;;;19.03;84.91;99280.09;338831;28;5200;-78
2023/05/23 00:47:41;;;;;;;37.38;23.27;;;;;;;19.05;84.82;99280.84;336268;28;17519;-78
2023/05/23 00:47:54;;;;;;;40.17;23.70;;;;;;;19.07;84.79;99286.84;335442;28;17559;-78
2023/05/23 00:48:06;;;;;;;42.67;24.23;;;;;;;19.06;84.75;99286.97;336153;28;17936;-78
2023/05/23 00:48:21;;;;;;;41.60;23.70;;;;;;;19.07;84.87;99278.94;337518;28;18732;-78
2023/05/23 00:48:33;;;;;;;42.35;23.35;;;;;;;19.05;84.80;99280.84;340092;28;5376;-78
2023/05/23 00:48:46;;;;;;;41.25;23.08;;;;;;;19.03;84.71;99285.38;335263;28;16472;-78
2023/05/23 00:48:58;;;;;;;38.75;23.05;;;;;;;19.04;84.82;99284.44;336857;28;4600;-79
2023/05/23 00:49:11;;;;;;;40.80;23.67;;;;;;;19.06;84.81;99286.97;336115;28;4598;-79
2023/05/23 00:49:26;;;;;;;41.33;23.63;;;;;;;19.10;84.49;99286.63;336455;28;17864;-78
2023/05/23 00:49:38;;;;;;;40.85;24.17;;;;;;;19.12;84.34;99283.88;335671;28;17175;-79
2023/05/23 00:49:50;;;;;;;43.33;23.75;;;;;;;19.14;84.28;99282.81;335365;28;16142;-78
2023/05/23 00:50:03;;;;;;;44.35;23.67;;;;;;;19.16;84.17;99282.69;338249;28;4671;-78
2023/05/23 00:50:18;;;;;;;42.42;23.35;;;;;;;19.16;83.91;99282.69;335119;28;18100;-78
2023/05/23 00:50:30;;;;;;;42.05;23.23;;;;;;;19.16;83.97;99280.91;335870;28;11083;-78
2023/05/23 00:50:42;;;;;;;40.38;23.45;;;;;;;19.12;83.87;99284.72;336315;28;17736;-78
2023/05/23 00:50:56;;;;;;;41.60;23.95;;;;;;;19.13;84.06;99280.28;339736;28;4695;-78
2023/05/23 00:51:08;;;;;;;41.97;23.83;;;;;;;19.11;84.04;99276.91;336878;28;19076;-78
2023/05/23 00:51:20;;;;;;;40.55;23.45;;;;;;;19.09;84.16;99284.94;339781;28;5181;-78
2023/05/23 00:51:32;;;;;;;38.90;22.75;;;;;;;19.07;84.04;99284.19;336195;28;19191;-78
2023/05/23 00:51:45;;;;;;;40.90;23.55;;;;;;;19.02;nan;99282.88;339936;28;4530;-78
2023/05/23 00:51:57;;;;;;;42.20;24.08;;;;;;;19.01;84.53;99284.66;336591;28;18067;-78
2023/05/23 00:52:10;;;;;;;39.97;23.42;;;;;;;19.04;84.43;99281.81;339432;28;4576;-78
2023/05/23 00:52:22;;;;;;;39.75;22.73;;;;;;;19.04;84.39;99286.25;336481;28;18364;-78
2023/05/23 00:52:34;;;;;;;38.78;22.35;;;;;;;19.04;84.39;99286.25;338450;28;4548;-78
2023/05/23 00:52:48;;;;;;;39.17;22.40;;;;;;;19.05;84.51;99283.47;335308;28;18039;-78
2023/05/23 00:53:00;;;;;;;39.80;22.48;;;;;;;19.06;84.40;99285.16;334796;28;9501;-78
2023/05/23 00:53:12;;;;;;;42.05;23.55;;;;;;;19.07;84.29;99284.19;338153;28;5157;-78
2023/05/23 00:53:25;;;;;;;40.60;23.67;;;;;;;19.10;84.27;99285.78;338012;28;5509;-78
2023/05/23 00:53:37;;;;;;;42.72;23.42;;;;;;;19.08;84.20;99283.25;335446;28;18027;-78
2023/05/23 00:53:50;;;;;;;42.15;23.38;;;;;;;18.96;84.44;99278.91;337297;28;4577;-78
2023/05/23 00:54:04;;;;;;;44.35;24.67;;;;;;;18.90;84.84;99276.72;334565;28;21494;-78
2023/05/23 00:54:23;;;;;;;45.67;25.17;;;;;;;18.92;84.83;99278.28;334369;28;18426;-78
2023/05/23 00:54:36;;;;;;;42.85;24.55;;;;;;;18.94;84.95;99286.06;333310;28;18009;-78
2023/05/23 00:54:48;;;;;;;41.65;24.25;;;;;;;18.87;84.73;99284.81;335278;28;5029;-78
2023/05/23 00:55:00;;;;;;;40.33;23.83;;;;;;;18.94;84.81;99280.81;332229;28;11066;-78
2023/05/23 00:55:13;;;;;;;40.13;24.02;;;;;;;18.91;84.85;99275.75;335854;28;4566;-78
2023/05/23 00:55:25;;;;;;;38.65;23.80;;;;;;;18.88;84.93;99281.25;334168;28;5119;-78
2023/05/23 00:55:38;;;;;;;39.17;24.38;;;;;;;18.89;85.04;99282.91;335540;28;18146;-78
2023/05/23 00:55:50;;;;;;;40.60;24.55;;;;;;;18.90;84.87;99279.34;334242;28;7970;-78
2023/05/23 00:56:02;;;;;;;43.75;25.02;;;;;;;18.87;85.09;99282.19;336871;28;4470;-78
2023/05/23 00:56:15;;;;;;;43.88;24.70;;;;;;;18.87;84.99;99280.38;334617;28;4604;-78
2023/05/23 00:56:28;;;;;;;43.17;23.98;;;;;;;18.90;84.98;99284.63;333159;28;17903;-78
2023/05/23 00:56:42;;;;;;;42.78;23.95;;;;;;;18.90;84.95;99280.19;333654;28;7748;-78
2023/05/23 00:56:54;;;;;;;44.83;24.80;;;;;;;18.92;85.00;99277.44;337621;28;5214;-78
2023/05/23 00:57:06;;;;;;;42.97;24.13;;;;;;;18.95;84.85;99282.47;333769;28;18055;-78
2023/05/23 00:57:19;;;;;;;42.15;23.15;;;;;;;18.98;84.85;99282.25;335335;28;4664;-78
2023/05/23 00:57:33;;;;;;;41.25;23.58;;;;;;;19.01;84.62;99287.28;332750;28;4542;-78
2023/05/23 00:57:46;;;;;;;40.83;23.80;;;;;;;19.04;84.56;99288.88;332006;28;9378;-78
2023/05/23 00:57:58;;;;;;;42.97;24.33;;;;;;;19.05;84.60;99287.91;335558;28;4774;-78
2023/05/23 00:58:12;;;;;;;44.47;25.23;;;;;;;19.04;84.44;99287.06;332760;28;8564;-78
2023/05/23 00:58:24;;;;;;;42.30;25.23;;;;;;;19.05;84.46;99291.38;336914;28;5278;-78
2023/05/23 00:58:36;;;;;;;41.67;25.40;;;;;;;18.97;84.68;99280.56;333758;28;16213;-78
2023/05/23 00:58:48;;;;;;;40.88;24.95;;;;;;;18.98;84.52;99290.16;338133;28;5620;-78
2023/05/23 00:59:00;;;;;;;43.80;24.48;;;;;;;18.94;84.59;99289.53;335564;28;5246;-78
2023/05/23 00:59:12;;;;;;;45.05;24.42;;;;;;;18.92;84.85;99287.97;337967;28;5014;-78
2023/05/23 00:59:25;;;;;;;48.38;25.30;;;;;;;18.95;84.95;99288.59;337269;28;5299;-78
2023/05/23 00:59:37;;;;;;;44.92;24.83;;;;;;;18.95;84.72;99287.75;334155;28;17897;-78
2023/05/23 00:59:50;;;;;;;44.13;25.35;;;;;;;18.93;85.02;99292.28;336834;28;4558;-78